Time;durP1;ratioP1;P1;durP2;ratioP2;P2;SDS_P1;SDS_P2;PMS_P1;PMS_P2;Temp;Humidity;BMP_temperature;BMP_pressure;BME280_temperature;BME280_humidity;BME280_pressure;Samples;Min_cycle;Max_cycle;Signal;HPM_P1;HPM_P2
2021/09/12 00:00:38;;;;;;;39.33;29.88;;;17.30;99.90;;;;;;6156498;23;20028;-73
2021/09/12 00:03:04;;;;;;;41.88;29.98;;;17.30;99.90;;;;;;6132705;23;20013;-74
2021/09/12 00:05:31;;;;;;;42.70;30.33;;;17.30;99.90;;;;;;6156794;23;20013;-73
2021/09/12 00:07:56;;;;;;;47.00;31.50;;;17.30;99.90;;;;;;6183768;23;20013;-73
2021/09/12 00:10:22;;;;;;;42.35;29.83;;;17.30;99.90;;;;;;6156841;23;20409;-73
2021/09/12 00:12:47;;;;;;;44.70;30.73;;;17.30;99.90;;;;;;6132807;23;20013;-73
2021/09/12 00:15:13;;;;;;;43.83;30.90;;;17.40;99.90;;;;;;6156786;23;20008;-73
2021/09/12 00:17:39;;;;;;;45.55;31.50;;;17.40;99.90;;;;;;6156976;23;20322;-73
2021/09/12 00:20:05;;;;;;;44.25;31.85;;;17.40;99.90;;;;;;6183558;23;20017;-73
2021/09/12 00:22:31;;;;;;;45.83;33.08;;;17.40;99.90;;;;;;6156751;23;20064;-73
2021/09/12 00:24:57;;;;;;;42.20;29.70;;;17.40;99.90;;;;;;6156998;23;20013;-73
2021/09/12 00:27:22;;;;;;;45.42;31.08;;;17.40;99.90;;;;;;6183699;23;20032;-73
2021/09/12 00:29:48;;;;;;;43.40;30.77;;;17.40;99.90;;;;;;6156798;23;20017;-73
2021/09/12 00:32:14;;;;;;;45.92;30.23;;;17.40;99.90;;;;;;6156829;23;20059;-74
2021/09/12 00:34:39;;;;;;;50.08;31.30;;;17.40;99.90;;;;;;6182974;23;20020;-73
2021/09/12 00:37:05;;;;;;;45.58;30.73;;;17.40;99.90;;;;;;6132352;23;20088;-73
2021/09/12 00:39:31;;;;;;;41.60;29.00;;;17.40;99.90;;;;;;6182816;23;20017;-73
2021/09/12 00:41:56;;;;;;;44.63;29.63;;;17.40;99.90;;;;;;6156748;23;20013;-73
2021/09/12 00:44:24;;;;;;;43.47;28.98;;;17.40;99.90;;;;;;6132027;23;20017;-74
2021/09/12 00:46:52;;;;;;;43.33;30.58;;;17.40;99.90;;;;;;6156575;23;20021;-73
2021/09/12 00:49:18;;;;;;;43.22;30.02;;;17.40;99.90;;;;;;6156448;23;20112;-73
2021/09/12 00:51:44;;;;;;;41.90;29.15;;;17.40;99.90;;;;;;6156381;23;20021;-73
2021/09/12 00:54:11;;;;;;;43.28;29.42;;;17.40;99.90;;;;;;6156664;23;20017;-73
2021/09/12 00:56:39;;;;;;;42.47;28.33;;;17.40;99.90;;;;;;6156510;23;20013;-74
2021/09/12 00:59:09;;;;;;;37.53;26.38;;;17.40;99.90;;;;;;6131894;23;20013;-73
2021/09/12 01:01:36;;;;;;;42.50;28.02;;;17.30;99.90;;;;;;6156548;23;20009;-73
2021/09/12 01:04:02;;;;;;;43.88;29.42;;;17.30;99.90;;;;;;6182944;23;20333;-73
2021/09/12 01:06:29;;;;;;;48.03;27.65;;;17.30;99.90;;;;;;6156294;23;20024;-73
2021/09/12 01:08:54;;;;;;;40.53;26.92;;;17.30;99.90;;;;;;6156512;23;20017;-73
2021/09/12 01:11:20;;;;;;;45.75;28.88;;;17.20;99.90;;;;;;6156140;23;20109;-73
2021/09/12 01:13:46;;;;;;;52.65;31.10;;;17.20;99.90;;;;;;6156367;23;20020;-73
2021/09/12 01:16:14;;;;;;;50.92;29.58;;;17.20;99.90;;;;;;6183377;23;20017;-74
2021/09/12 01:18:40;;;;;;;49.42;29.50;;;17.10;99.90;;;;;;6156248;23;20028;-74
2021/09/12 01:21:09;;;;;;;48.03;29.58;;;17.10;99.90;;;;;;6156516;23;20021;-74
2021/09/12 01:23:34;;;;;;;41.85;27.85;;;17.10;99.90;;;;;;6156190;23;20005;-74
2021/09/12 01:26:00;;;;;;;52.08;29.30;;;17.10;99.90;;;;;;6156159;23;20035;-73
2021/09/12 01:28:26;;;;;;;40.20;26.52;;;17.00;99.90;;;;;;6156704;23;20016;-73
2021/09/12 01:30:52;;;;;;;41.05;27.40;;;17.00;99.90;;;;;;6156518;23;20548;-73
2021/09/12 01:33:18;;;;;;;40.60;28.15;;;17.00;99.90;;;;;;6131719;23;20009;-73
2021/09/12 01:35:44;;;;;;;41.20;28.02;;;16.90;99.90;;;;;;6131624;23;20345;-73
2021/09/12 01:38:09;;;;;;;44.90;28.88;;;16.90;99.90;;;;;;6156255;23;20021;-73
2021/09/12 01:40:35;;;;;;;44.30;28.15;;;16.80;99.90;;;;;;6155975;23;20021;-73
2021/09/12 01:43:01;;;;;;;42.08;29.65;;;16.80;99.90;;;;;;6156142;23;20073;-73
2021/09/12 01:45:26;;;;;;;46.58;28.38;;;16.80;99.90;;;;;;6156062;23;20462;-73
2021/09/12 01:47:58;;;;;;;45.28;28.90;;;16.70;99.90;;;;;;6131516;23;20013;-73
2021/09/12 01:50:25;;;;;;;46.85;28.42;;;16.70;99.90;;;;;;6182747;23;20025;-73
2021/09/12 01:52:50;;;;;;;45.08;28.92;;;16.70;99.90;;;;;;6131155;23;20036;-73
2021/09/12 01:55:16;;;;;;;48.33;29.45;;;16.70;99.90;;;;;;6131528;23;20013;-73
2021/09/12 01:57:41;;;;;;;43.70;28.58;;;16.70;99.90;;;;;;6156042;23;20013;-73
2021/09/12 02:00:07;;;;;;;43.60;27.70;;;16.70;99.90;;;;;;6155907;23;20075;-73
2021/09/12 02:02:33;;;;;;;45.10;28.42;;;16.70;99.90;;;;;;6155900;23;20048;-73
2021/09/12 02:04:59;;;;;;;40.25;27.55;;;16.70;99.90;;;;;;6155921;23;20013;-74
2021/09/12 02:07:25;;;;;;;36.33;25.38;;;16.70;99.90;;;;;;6155668;23;20063;-74
2021/09/12 02:09:50;;;;;;;40.03;27.75;;;16.60;99.90;;;;;;6155999;23;20029;-73
2021/09/12 02:12:16;;;;;;;41.53;26.48;;;16.60;99.90;;;;;;6156065;23;20027;-73
2021/09/12 02:14:42;;;;;;;45.10;26.38;;;16.60;99.90;;;;;;6182119;23;20027;-74
2021/09/12 02:17:07;;;;;;;41.30;27.25;;;16.60;99.90;;;;;;6155800;23;20100;-73
2021/09/12 02:19:33;;;;;;;38.30;25.20;;;16.60;99.90;;;;;;6155732;23;20017;-74
2021/09/12 02:21:58;;;;;;;43.00;25.73;;;16.60;99.90;;;;;;6155750;23;20024;-74
2021/09/12 02:24:24;;;;;;;46.00;26.52;;;16.60;99.90;;;;;;6131347;23;20045;-74
2021/09/12 02:26:49;;;;;;;43.22;26.88;;;16.50;99.90;;;;;;6182057;23;20012;-73
2021/09/12 02:29:15;;;;;;;36.97;24.00;;;16.50;99.90;;;;;;6131192;23;20009;-74
2021/09/12 02:31:40;;;;;;;41.15;26.48;;;16.50;99.90;;;;;;6181985;23;20016;-73
2021/09/12 02:34:06;;;;;;;45.05;25.30;;;16.50;99.90;;;;;;6182165;23;20468;-74
2021/09/12 02:36:31;;;;;;;50.60;28.60;;;16.40;99.90;;;;;;6131189;23;20100;-73
2021/09/12 02:38:57;;;;;;;43.42;26.38;;;16.40;99.90;;;;;;6155935;23;20515;-73
2021/09/12 02:41:23;;;;;;;43.15;27.90;;;16.40;99.90;;;;;;6155885;23;20408;-74
2021/09/12 02:43:48;;;;;;;48.38;27.33;;;16.40;99.90;;;;;;6182460;23;20013;-74
2021/09/12 02:46:14;;;;;;;45.38;28.63;;;16.30;99.90;;;;;;6155829;23;20345;-73
2021/09/12 02:48:39;;;;;;;41.67;26.77;;;16.30;99.90;;;;;;6155693;23;20460;-73
2021/09/12 02:51:05;;;;;;;40.47;26.40;;;16.30;99.90;;;;;;6155941;23;20032;-73
2021/09/12 02:53:30;;;;;;;40.22;26.42;;;16.20;99.90;;;;;;6130913;23;20467;-74
2021/09/12 02:55:56;;;;;;;40.25;26.63;;;16.20;99.90;;;;;;6155695;23;20450;-73
2021/09/12 02:58:22;;;;;;;41.28;25.65;;;16.20;99.90;;;;;;6131449;23;20434;-73
2021/09/12 03:00:47;;;;;;;46.97;26.67;;;16.10;99.90;;;;;;6182249;23;20055;-74
2021/09/12 03:03:13;;;;;;;46.78;25.85;;;16.10;99.90;;;;;;6155729;23;20013;-74
2021/09/12 03:05:38;;;;;;;40.53;25.40;;;16.10;99.90;;;;;;6131519;23;20024;-73
2021/09/12 03:08:04;;;;;;;40.35;25.23;;;16.00;99.90;;;;;;6131298;23;20016;-74
2021/09/12 03:10:30;;;;;;;41.65;24.77;;;16.00;99.90;;;;;;6155579;23;20293;-73
2021/09/12 03:12:55;;;;;;;35.78;22.60;;;16.00;99.90;;;;;;6130809;23;20015;-73
2021/09/12 03:15:21;;;;;;;37.30;23.23;;;16.00;99.90;;;;;;6155489;23;20055;-73
2021/09/12 03:17:47;;;;;;;37.10;22.00;;;16.00;99.90;;;;;;6155344;23;20009;-73
2021/09/12 03:20:13;;;;;;;29.50;20.38;;;16.00;99.90;;;;;;6182113;23;20013;-73
2021/09/12 03:22:38;;;;;;;36.45;21.85;;;16.00;99.90;;;;;;6155453;23;20021;-74
2021/09/12 03:25:06;;;;;;;33.45;20.55;;;16.00;99.90;;;;;;6130955;23;20087;-74
2021/09/12 03:27:32;;;;;;;31.38;19.70;;;16.00;99.90;;;;;;6155304;23;20025;-73
2021/09/12 03:29:57;;;;;;;28.80;19.25;;;16.00;99.90;;;;;;6155537;23;20092;-73
2021/09/12 03:32:23;;;;;;;30.90;18.95;;;16.00;99.90;;;;;;6155252;23;20017;-73
2021/09/12 03:34:49;;;;;;;31.92;19.73;;;15.90;99.90;;;;;;6132707;23;20013;-73
2021/09/12 03:37:14;;;;;;;32.10;20.05;;;15.90;99.90;;;;;;6157257;23;20044;-73
2021/09/12 03:39:40;;;;;;;32.03;20.33;;;15.90;99.90;;;;;;6157145;23;20120;-73
2021/09/12 03:42:06;;;;;;;34.25;18.77;;;15.90;99.90;;;;;;6157355;23;20021;-74
2021/09/12 03:44:31;;;;;;;36.78;19.95;;;15.90;99.90;;;;;;6157215;23;20623;-74
2021/09/12 03:46:57;;;;;;;32.63;19.25;;;15.90;99.90;;;;;;6183985;23;20020;-73
2021/09/12 03:49:23;;;;;;;36.90;18.55;;;15.90;99.90;;;;;;6183798;23;20013;-73
2021/09/12 03:51:48;;;;;;;34.80;19.25;;;15.90;99.90;;;;;;6183324;23;20021;-74
2021/09/12 03:54:14;;;;;;;32.53;18.45;;;15.80;99.90;;;;;;6132465;23;20056;-74
2021/09/12 03:56:39;;;;;;;33.17;19.45;;;15.80;99.90;;;;;;6157229;23;20481;-74
2021/09/12 03:59:05;;;;;;;32.42;18.08;;;15.70;99.90;;;;;;6157065;23;20060;-73
2021/09/12 04:01:30;;;;;;;33.88;19.15;;;15.70;99.90;;;;;;6157186;23;20017;-74
2021/09/12 04:03:56;;;;;;;27.38;17.25;;;15.70;99.90;;;;;;6156781;23;20460;-74
2021/09/12 04:06:22;;;;;;;31.77;18.33;;;15.70;99.90;;;;;;6157135;23;20013;-74
2021/09/12 04:08:47;;;;;;;29.85;18.25;;;15.70;99.90;;;;;;6156904;23;20013;-74
2021/09/12 04:11:13;;;;;;;31.55;18.25;;;15.70;99.90;;;;;;6156913;23;20048;-74
2021/09/12 04:13:38;;;;;;;28.02;18.83;;;15.70;99.90;;;;;;6156866;23;20093;-74
2021/09/12 04:16:04;;;;;;;35.45;18.42;;;15.70;99.90;;;;;;6156863;23;20512;-74
2021/09/12 04:18:30;;;;;;;23.33;15.90;;;15.70;99.90;;;;;;6157235;23;20025;-74
2021/09/12 04:20:55;;;;;;;29.35;18.00;;;15.70;99.90;;;;;;6156880;23;20009;-74
2021/09/12 04:23:21;;;;;;;28.73;16.48;;;15.70;99.90;;;;;;6132091;23;20441;-74
2021/09/12 04:25:46;;;;;;;27.52;16.33;;;15.70;99.90;;;;;;6156792;23;20039;-74
2021/09/12 04:28:12;;;;;;;28.00;15.93;;;15.80;99.90;;;;;;6183437;23;20020;-74
2021/09/12 04:30:37;;;;;;;32.92;17.38;;;15.80;99.90;;;;;;6156846;23;20091;-74
2021/09/12 04:33:03;;;;;;;27.08;15.45;;;15.80;99.90;;;;;;6132075;23;20029;-73
2021/09/12 04:35:29;;;;;;;27.42;16.38;;;15.80;99.90;;;;;;6156695;23;20402;-73
2021/09/12 04:37:54;;;;;;;29.55;16.13;;;15.80;99.90;;;;;;6156747;23;20009;-74
2021/09/12 04:40:20;;;;;;;27.92;16.17;;;15.80;99.90;;;;;;6156579;23;20021;-74
2021/09/12 04:42:45;;;;;;;25.17;15.23;;;15.80;99.90;;;;;;6156847;23;20009;-73
2021/09/12 04:45:11;;;;;;;27.30;15.13;;;15.90;99.90;;;;;;6156329;23;20020;-73
2021/09/12 04:47:36;;;;;;;27.50;15.63;;;15.90;99.90;;;;;;6156794;23;20021;-73
2021/09/12 04:50:03;;;;;;;26.40;15.25;;;15.80;99.90;;;;;;6156458;23;20025;-73
2021/09/12 04:52:29;;;;;;;22.65;15.30;;;15.90;99.90;;;;;;6151405;23;20021;-73
2021/09/12 04:54:54;;;;;;;22.63;14.50;;;15.90;99.90;;;;;;6151463;23;20027;-74
2021/09/12 04:57:20;;;;;;;23.00;15.32;;;15.90;99.90;;;;;;6151642;23;20029;-74
2021/09/12 04:59:45;;;;;;;28.38;15.50;;;15.90;99.90;;;;;;6151353;23;20341;-74
2021/09/12 05:02:11;;;;;;;25.45;14.77;;;15.90;99.90;;;;;;6151586;23;20063;-74
2021/09/12 05:04:36;;;;;;;23.98;14.05;;;15.90;99.90;;;;;;6151351;23;20085;-74
2021/09/12 05:07:02;;;;;;;24.23;14.05;;;16.00;99.90;;;;;;6153177;23;20009;-74
2021/09/12 05:09:28;;;;;;;25.08;14.05;;;16.00;99.90;;;;;;6151161;23;20152;-73
2021/09/12 05:11:54;;;;;;;25.92;14.02;;;16.00;99.90;;;;;;6151176;23;20005;-73
2021/09/12 05:14:19;;;;;;;21.23;13.93;;;16.00;99.90;;;;;;6150784;23;20159;-73
2021/09/12 05:16:45;;;;;;;22.25;14.57;;;16.00;99.90;;;;;;6150505;23;20089;-74
2021/09/12 05:19:10;;;;;;;24.98;14.95;;;16.00;99.90;;;;;;6150494;23;20041;-74
2021/09/12 05:21:36;;;;;;;23.98;14.25;;;16.00;99.90;;;;;;6151097;23;20022;-74
2021/09/12 05:24:01;;;;;;;22.50;13.32;;;16.10;99.90;;;;;;6152733;23;20049;-74
2021/09/12 05:26:27;;;;;;;22.65;13.05;;;16.10;99.90;;;;;;6151429;23;20009;-74
2021/09/12 05:28:52;;;;;;;24.98;13.63;;;16.10;99.90;;;;;;6151337;23;20017;-74
2021/09/12 05:31:18;;;;;;;19.98;14.35;;;16.10;99.90;;;;;;6151224;23;20465;-74
2021/09/12 05:33:44;;;;;;;21.27;13.25;;;16.10;99.90;;;;;;6152968;23;20013;-74
2021/09/12 05:36:09;;;;;;;25.98;13.15;;;16.10;99.90;;;;;;6151060;23;20341;-74
2021/09/12 05:38:35;;;;;;;26.60;13.25;;;16.10;99.90;;;;;;6152821;23;20010;-74
2021/09/12 05:41:01;;;;;;;23.33;13.27;;;16.10;99.90;;;;;;6150799;23;20076;-73
2021/09/12 05:43:27;;;;;;;22.08;13.13;;;16.20;99.90;;;;;;6151224;23;20120;-74
2021/09/12 05:45:52;;;;;;;19.83;12.93;;;16.20;99.90;;;;;;6126428;23;20452;-73
2021/09/12 05:48:18;;;;;;;19.60;11.85;;;16.20;99.90;;;;;;6151023;23;20013;-73
2021/09/12 05:50:43;;;;;;;18.77;12.68;;;16.20;99.90;;;;;;6150946;23;20018;-74
2021/09/12 05:53:09;;;;;;;18.70;11.95;;;16.20;99.90;;;;;;6126251;23;20018;-74
2021/09/12 05:55:36;;;;;;;22.00;12.38;;;16.20;99.90;;;;;;6150922;23;20064;-74
2021/09/12 05:58:02;;;;;;;21.00;12.35;;;16.30;99.90;;;;;;6150541;23;20017;-73
2021/09/12 06:00:28;;;;;;;21.70;12.18;;;16.30;99.90;;;;;;6150819;23;20183;-73
2021/09/12 06:02:53;;;;;;;20.30;12.05;;;16.30;99.90;;;;;;6151024;23;20028;-73
2021/09/12 06:05:19;;;;;;;20.02;12.18;;;16.30;99.90;;;;;;6150831;23;20116;-73
2021/09/12 06:07:44;;;;;;;22.58;12.68;;;16.40;99.90;;;;;;6151033;23;20018;-73
2021/09/12 06:10:10;;;;;;;20.55;11.27;;;16.40;99.90;;;;;;6150767;23;20457;-73
2021/09/12 06:12:36;;;;;;;22.83;12.43;;;16.40;99.90;;;;;;6126336;23;20374;-73
2021/09/12 06:15:03;;;;;;;19.67;12.35;;;16.40;99.90;;;;;;6150913;23;20017;-74
2021/09/12 06:17:28;;;;;;;18.55;12.82;;;16.50;99.90;;;;;;6150816;23;20025;-73
2021/09/12 06:19:54;;;;;;;20.27;12.50;;;16.50;99.90;;;;;;6126146;23;20021;-74
2021/09/12 06:22:19;;;;;;;19.70;12.40;;;16.50;99.90;;;;;;6150815;23;20052;-74
2021/09/12 06:24:46;;;;;;;18.58;12.32;;;16.60;99.90;;;;;;6150873;23;20088;-74
2021/09/12 06:27:11;;;;;;;23.88;13.10;;;16.60;99.90;;;;;;6150580;23;20014;-74
2021/09/12 06:29:37;;;;;;;21.80;12.95;;;16.60;99.90;;;;;;6150703;23;20323;-74
2021/09/12 06:32:03;;;;;;;22.90;13.23;;;16.70;99.90;;;;;;6150502;23;20077;-74
2021/09/12 06:34:29;;;;;;;19.90;12.70;;;16.70;99.90;;;;;;6126177;23;20017;-74
2021/09/12 06:36:56;;;;;;;21.88;12.32;;;16.80;99.90;;;;;;6151010;23;20096;-74
2021/09/12 06:39:22;;;;;;;20.45;12.93;;;16.90;99.90;;;;;;6151968;23;20457;-73
2021/09/12 06:41:48;;;;;;;19.02;13.05;;;17.00;99.90;;;;;;6150471;23;20397;-74
2021/09/12 06:44:14;;;;;;;19.65;12.38;;;17.10;99.90;;;;;;6150641;23;20041;-74
2021/09/12 06:46:39;;;;;;;20.52;12.63;;;17.20;99.90;;;;;;6150434;23;20018;-74
2021/09/12 06:49:05;;;;;;;16.63;12.50;;;17.30;99.90;;;;;;6126061;23;20468;-74
2021/09/12 06:51:30;;;;;;;19.50;12.98;;;17.40;99.90;;;;;;6151253;23;20080;-72
2021/09/12 06:53:56;;;;;;;17.17;12.70;;;17.40;99.90;;;;;;6155618;23;20445;-74
2021/09/12 06:56:22;;;;;;;18.90;12.27;;;17.50;99.90;;;;;;6155407;23;20195;-74
2021/09/12 06:58:47;;;;;;;22.98;12.55;;;17.70;99.90;;;;;;6155961;23;20087;-74
2021/09/12 07:01:13;;;;;;;22.27;12.50;;;17.80;99.90;;;;;;6155282;23;20227;-74
2021/09/12 07:03:38;;;;;;;18.48;11.80;;;17.90;99.90;;;;;;6155444;23;20021;-74
2021/09/12 07:06:04;;;;;;;17.15;11.75;;;17.90;99.90;;;;;;6155514;23;20017;-74
2021/09/12 07:08:30;;;;;;;19.60;12.55;;;18.00;99.90;;;;;;6156374;23;20349;-74
2021/09/12 07:10:55;;;;;;;21.35;13.20;;;18.10;99.90;;;;;;6157392;23;20017;-74
2021/09/12 07:13:21;;;;;;;17.48;12.15;;;18.40;99.90;;;;;;6157387;23;20024;-73
2021/09/12 07:15:47;;;;;;;18.42;12.07;;;18.80;99.90;;;;;;6132895;23;20032;-73
2021/09/12 07:18:12;;;;;;;16.65;11.25;;;19.10;99.90;;;;;;6157355;23;20023;-74
2021/09/12 07:20:38;;;;;;;16.70;11.02;;;19.30;99.90;;;;;;6157324;23;20048;-73
2021/09/12 07:23:03;;;;;;;20.83;11.90;;;19.50;99.90;;;;;;6132566;23;20009;-73
2021/09/12 07:25:29;;;;;;;16.30;11.57;;;19.80;99.90;;;;;;6157313;23;20064;-74
2021/09/12 07:27:55;;;;;;;16.30;11.25;;;20.10;99.90;;;;;;6157159;23;20009;-74
2021/09/12 07:30:20;;;;;;;16.05;10.93;;;20.40;99.90;;;;;;6157377;23;20020;-74
2021/09/12 07:32:46;;;;;;;17.27;11.63;;;20.70;99.90;;;;;;6157164;23;20032;-74
2021/09/12 07:35:12;;;;;;;17.90;11.23;;;20.80;99.90;;;;;;6157129;23;20023;-74
2021/09/12 07:37:38;;;;;;;14.20;10.82;;;20.70;99.90;;;;;;6183925;23;20037;-74
2021/09/12 07:40:05;;;;;;;20.50;12.30;;;20.70;99.90;;;;;;6157067;23;20113;-74
2021/09/12 07:42:30;;;;;;;20.48;12.10;;;20.60;99.90;;;;;;6157114;23;20133;-74
2021/09/12 07:44:56;;;;;;;16.45;11.80;;;20.60;99.90;;;;;;6184024;23;20018;-75
2021/09/12 07:47:22;;;;;;;20.48;12.48;;;20.60;99.90;;;;;;6156993;23;20333;-74
2021/09/12 07:49:47;;;;;;;23.10;13.02;;;20.60;99.90;;;;;;6157248;23;20024;-73
2021/09/12 07:52:13;;;;;;;14.48;11.73;;;20.50;99.90;;;;;;6127276;23;20060;-74
2021/09/12 07:54:38;;;;;;;19.13;13.65;;;20.30;99.90;;;;;;6152182;23;20493;-74
2021/09/12 07:57:04;;;;;;;16.00;12.00;;;20.20;99.90;;;;;;6152111;23;20024;-73
2021/09/12 07:59:29;;;;;;;21.55;12.85;;;20.20;99.90;;;;;;6151928;23;20056;-74
2021/09/12 08:01:56;;;;;;;18.15;11.80;;;20.10;99.90;;;;;;6152001;23;20017;-74
2021/09/12 08:04:21;;;;;;;19.92;13.77;;;20.10;99.90;;;;;;6152032;23;20020;-74
2021/09/12 08:06:47;;;;;;;19.52;13.45;;;19.90;99.90;;;;;;6153909;23;20005;-74
2021/09/12 08:09:12;;;;;;;19.58;12.80;;;19.80;99.90;;;;;;6153494;23;20052;-74
2021/09/12 08:11:38;;;;;;;19.05;12.85;;;19.80;99.90;;;;;;6151959;23;20043;-74
2021/09/12 08:14:04;;;;;;;19.02;13.57;;;19.70;99.90;;;;;;6151834;23;20067;-73
2021/09/12 08:16:29;;;;;;;18.35;13.45;;;19.70;99.90;;;;;;6151895;23;20068;-74
2021/09/12 08:18:55;;;;;;;21.00;14.07;;;19.70;99.90;;;;;;6151686;23;20068;-74
2021/09/12 08:21:20;;;;;;;16.80;13.27;;;19.70;99.90;;;;;;6151386;23;20017;-74
2021/09/12 08:23:46;;;;;;;22.50;14.95;;;19.90;99.90;;;;;;6151632;23;20376;-74
2021/09/12 08:26:12;;;;;;;20.98;14.57;;;19.90;99.90;;;;;;6127296;23;20013;-74
2021/09/12 08:28:37;;;;;;;19.55;14.10;;;20.10;99.90;;;;;;6152000;23;20014;-74
2021/09/12 08:31:03;;;;;;;19.52;13.70;;;20.20;99.90;;;;;;6151925;23;20508;-73
2021/09/12 08:33:29;;;;;;;22.33;15.13;;;20.20;99.90;;;;;;6151589;23;20021;-74
2021/09/12 08:35:55;;;;;;;20.00;15.57;;;20.30;99.90;;;;;;6152092;23;20013;-74
2021/09/12 08:38:20;;;;;;;20.55;15.20;;;20.30;99.90;;;;;;6151556;23;20374;-73
2021/09/12 08:40:46;;;;;;;20.80;15.23;;;20.40;99.90;;;;;;6153240;23;20125;-74
2021/09/12 08:43:13;;;;;;;18.73;16.10;;;20.40;99.90;;;;;;6151596;23;20048;-74
2021/09/12 08:45:39;;;;;;;19.30;15.27;;;20.50;99.90;;;;;;6127208;23;20018;-75
2021/09/12 08:48:05;;;;;;;20.50;15.45;;;20.50;99.90;;;;;;6151418;23;20009;-74
2021/09/12 08:50:31;;;;;;;17.77;14.43;;;20.50;99.90;;;;;;6151671;23;20049;-74
2021/09/12 08:52:57;;;;;;;23.30;16.48;;;20.60;99.90;;;;;;6126600;23;20028;-73
2021/09/12 08:55:23;;;;;;;19.90;14.85;;;20.70;99.90;;;;;;6151604;23;20013;-74
2021/09/12 08:57:52;;;;;;;20.13;15.27;;;20.80;99.90;;;;;;6153190;23;20017;-74
2021/09/12 09:00:25;;;;;;;19.63;15.05;;;20.90;99.90;;;;;;6151370;23;20350;-74
2021/09/12 09:02:59;;;;;;;20.90;14.52;;;20.90;99.90;;;;;;6151397;23;20158;-74
2021/09/12 09:05:33;;;;;;;20.95;15.65;;;20.90;99.90;;;;;;6151371;23;20092;-74
2021/09/12 09:08:03;;;;;;;21.88;16.45;;;20.70;99.90;;;;;;6151445;23;20525;-74
2021/09/12 09:10:37;;;;;;;23.48;15.70;;;20.60;99.90;;;;;;6151471;23;20341;-74
2021/09/12 09:13:02;;;;;;;20.25;16.77;;;20.60;99.90;;;;;;6126743;23;20013;-74
2021/09/12 09:15:28;;;;;;;19.02;15.18;;;20.60;99.90;;;;;;6126890;23;20392;-74
2021/09/12 09:17:54;;;;;;;20.65;15.32;;;20.60;99.90;;;;;;6151202;23;20014;-74
2021/09/12 09:20:33;;;;;;;22.95;16.13;;;20.70;99.90;;;;;;6151363;23;20189;-74
2021/09/12 09:23:05;;;;;;;22.55;16.80;;;20.70;99.90;;;;;;6151285;23;20020;-74
2021/09/12 09:25:31;;;;;;;20.05;16.38;;;20.60;99.90;;;;;;6151316;23;20028;-75
2021/09/12 09:28:08;;;;;;;23.88;18.50;;;20.50;99.90;;;;;;6151276;23;20449;-74
2021/09/12 09:30:34;;;;;;;25.27;18.02;;;20.30;99.90;;;;;;6151072;23;20049;-74
2021/09/12 09:33:13;;;;;;;26.15;18.73;;;20.30;99.90;;;;;;6127243;23;20030;-74
2021/09/12 09:36:01;;;;;;;23.73;18.23;;;20.30;99.90;;;;;;6151136;23;20381;-74
2021/09/12 09:38:33;;;;;;;24.88;19.00;;;20.40;99.90;;;;;;6151012;23;20013;-74
2021/09/12 09:41:02;;;;;;;30.17;19.60;;;20.50;99.90;;;;;;6150939;23;20028;-74
2021/09/12 09:43:46;;;;;;;20.70;17.35;;;20.50;99.90;;;;;;6151025;23;20060;-74
2021/09/12 09:46:33;;;;;;;30.70;18.42;;;20.60;99.90;;;;;;6151082;23;20024;-74
2021/09/12 09:49:28;;;;;;;24.00;17.90;;;20.60;99.90;;;;;;6151025;23;20020;-74
2021/09/12 09:51:58;;;;;;;26.08;18.20;;;20.70;99.90;;;;;;6150749;23;20092;-74
2021/09/12 09:54:26;;;;;;;21.45;16.92;;;20.80;99.90;;;;;;6150943;23;20026;-74
2021/09/12 09:56:53;;;;;;;26.30;18.67;;;20.80;99.90;;;;;;6150953;23;20411;-74
2021/09/12 09:59:20;;;;;;;25.23;18.08;;;20.80;99.90;;;;;;6152466;23;20078;-74
2021/09/12 10:01:51;;;;;;;22.17;18.50;;;20.80;99.90;;;;;;6126299;23;20408;-74
2021/09/12 10:04:28;;;;;;;22.25;17.52;;;20.70;99.90;;;;;;6150823;23;20392;-74
2021/09/12 10:06:54;;;;;;;21.67;17.08;;;20.70;99.90;;;;;;6151083;23;20015;-74
2021/09/12 10:09:21;;;;;;;22.30;16.63;;;20.70;99.90;;;;;;6152826;23;20018;-74
2021/09/12 10:11:56;;;;;;;23.10;17.70;;;20.80;99.90;;;;;;6150841;23;20021;-74
2021/09/12 10:14:26;;;;;;;22.23;17.10;;;20.90;99.90;;;;;;6152870;23;20022;-75
2021/09/12 10:16:53;;;;;;;21.67;18.20;;;21.00;99.90;;;;;;6152463;23;20014;-74
2021/09/12 10:19:34;;;;;;;22.70;16.92;;;21.20;99.90;;;;;;6150871;23;20092;-74
2021/09/12 10:22:01;;;;;;;23.02;18.05;;;21.30;99.90;;;;;;6150817;23;20528;-74
2021/09/12 10:24:27;;;;;;;22.80;16.77;;;21.40;99.90;;;;;;6150755;23;20009;-74
2021/09/12 10:26:52;;;;;;;25.83;17.80;;;21.40;99.90;;;;;;6152804;23;20005;-73
2021/09/12 10:29:45;;;;;;;23.50;17.95;;;21.30;99.90;;;;;;6152591;23;20015;-74
2021/09/12 10:32:29;;;;;;;18.95;15.77;;;21.30;99.90;;;;;;6150808;23;20072;-74
2021/09/12 10:35:13;;;;;;;26.20;17.48;;;21.20;99.90;;;;;;6150638;23;20024;-74
2021/09/12 10:37:39;;;;;;;23.55;17.67;;;21.40;99.90;;;;;;6150957;23;20338;-74
2021/09/12 10:40:05;;;;;;;20.65;16.15;;;21.50;99.90;;;;;;6152506;23;20010;-74
2021/09/12 10:42:43;;;;;;;22.52;17.38;;;21.70;99.90;;;;;;6150428;23;20431;-73
2021/09/12 10:45:26;;;;;;;22.40;16.48;;;21.80;99.90;;;;;;6150618;23;20006;-74
2021/09/12 10:48:12;;;;;;;19.55;15.68;;;21.80;99.90;;;;;;6150670;23;20520;-74
2021/09/12 10:50:43;;;;;;;20.85;16.98;;;21.80;99.90;;;;;;6125850;23;20028;-74
2021/09/12 10:53:09;;;;;;;21.92;17.33;;;21.80;99.90;;;;;;6150583;23;20025;-73
2021/09/12 10:55:59;;;;;;;20.08;16.35;;;21.90;99.90;;;;;;6150560;23;20105;-73
2021/09/12 10:58:30;;;;;;;20.45;16.52;;;21.90;99.90;;;;;;6150786;23;20024;-73
2021/09/12 11:00:58;;;;;;;23.23;15.55;;;21.90;99.90;;;;;;6150460;23;20018;-73
2021/09/12 11:03:24;;;;;;;21.17;15.70;;;22.10;99.90;;;;;;6150620;23;20476;-73
2021/09/12 11:05:50;;;;;;;22.75;16.13;;;22.10;99.90;;;;;;6125922;23;20025;-74
2021/09/12 11:08:16;;;;;;;19.73;15.32;;;22.00;99.90;;;;;;6150654;23;20009;-73
2021/09/12 11:10:50;;;;;;;19.67;15.98;;;21.90;99.90;;;;;;6150620;23;20020;-74
2021/09/12 11:13:23;;;;;;;17.83;15.82;;;21.60;99.90;;;;;;6150610;23;20458;-73
2021/09/12 11:15:51;;;;;;;18.55;16.00;;;21.50;99.90;;;;;;6150464;23;20484;-74
2021/09/12 11:18:16;;;;;;;23.13;16.77;;;21.40;99.90;;;;;;6126093;23;20053;-74
2021/09/12 11:20:44;;;;;;;32.75;17.83;;;21.30;99.90;;;;;;6150479;23;20020;-73
2021/09/12 11:23:10;;;;;;;25.02;18.63;;;21.10;99.90;;;;;;6150575;23;20469;-73
2021/09/12 11:25:37;;;;;;;24.40;16.92;;;21.00;99.90;;;;;;6150524;23;20014;-73
2021/09/12 11:28:05;;;;;;;26.10;18.05;;;20.80;99.90;;;;;;6150520;23;20017;-73
2021/09/12 11:30:32;;;;;;;25.63;18.83;;;20.60;99.90;;;;;;6150370;23;20017;-73
2021/09/12 11:32:58;;;;;;;26.45;20.02;;;20.50;99.90;;;;;;6150458;23;20017;-73
2021/09/12 11:35:23;;;;;;;26.73;19.25;;;20.40;99.90;;;;;;6150239;23;20024;-73
2021/09/12 11:38:07;;;;;;;19.55;15.65;;;20.30;99.90;;;;;;6150555;23;20026;-73
2021/09/12 11:40:33;;;;;;;17.42;14.15;;;20.20;99.90;;;;;;6150230;23;20029;-73
2021/09/12 11:43:16;;;;;;;17.60;13.23;;;20.20;99.90;;;;;;6150458;23;20067;-73
2021/09/12 11:45:42;;;;;;;16.25;12.63;;;20.20;99.90;;;;;;6125881;23;20385;-73
2021/09/12 11:48:08;;;;;;;13.25;11.18;;;20.10;99.90;;;;;;6150486;23;20319;-73
2021/09/12 11:50:35;;;;;;;14.02;10.75;;;20.10;99.90;;;;;;6150217;23;20024;-73
2021/09/12 11:53:12;;;;;;;11.90;10.60;;;20.00;99.90;;;;;;6150412;23;20520;-73
2021/09/12 11:55:41;;;;;;;17.10;12.05;;;20.00;99.90;;;;;;6151930;23;20024;-73
2021/09/12 11:58:09;;;;;;;17.52;11.70;;;20.00;99.90;;;;;;6152230;23;20179;-73
2021/09/12 12:00:42;;;;;;;15.82;11.90;;;20.10;99.90;;;;;;6127560;23;20021;-73
2021/09/12 12:03:09;;;;;;;13.50;9.60;;;20.20;99.90;;;;;;6152557;23;20027;-73
2021/09/12 12:05:35;;;;;;;9.95;7.68;;;20.20;99.90;;;;;;6152171;23;20014;-73
2021/09/12 12:08:06;;;;;;;9.02;7.32;;;20.30;99.90;;;;;;6152253;23;20103;-73
2021/09/12 12:10:39;;;;;;;10.20;7.25;;;20.40;99.90;;;;;;6152202;23;20092;-74
2021/09/12 12:13:05;;;;;;;8.02;6.25;;;20.50;99.90;;;;;;6152033;23;20021;-73
2021/09/12 12:15:36;;;;;;;8.18;6.60;;;20.60;99.90;;;;;;6152003;23;20650;-73
2021/09/12 12:18:09;;;;;;;10.02;6.63;;;20.60;99.90;;;;;;6127522;23;20052;-73
2021/09/12 12:20:35;;;;;;;6.05;5.43;;;20.70;99.90;;;;;;6151915;23;20013;-74
2021/09/12 12:23:20;;;;;;;5.78;5.20;;;20.80;99.90;;;;;;6151981;23;20384;-74
2021/09/12 12:25:47;;;;;;;5.85;4.05;;;20.80;99.90;;;;;;6127365;23;20017;-73
2021/09/12 12:28:25;;;;;;;4.30;3.90;;;20.90;99.90;;;;;;6151837;23;20044;-74